Green Valley, AZ (85614)

6:10 PM MST on March 29, 2015 (GMT -0700)
La Canada Desert Homes I | | Change Station
CLOSE
Current Station
Personal Weather Station
Location: Green Valley, AZ
Elevation: 2930 ft
Nearby Weather Stations

Elev 2930 ft 31.86 °N, 111.00 °W | Updated 13 minutes ago

Partly Cloudy
Partly Cloudy
85.8 °F
Feels Like 82 °F
N
8.3
Wind Variable Wind from SW

Today
High -- | Low -- °F
--% Chance of Precip.
Yesterday
High -- | Low -- °F
Precip. -- in
6:16 AM 6:41 PM
Waxing Gibbous, 75% visible
Pressure 29.92 in
Visibility 10.0 miles
Clouds Clear
Heat Index 82 °F
Dew Point 31 °F
Humidity 14%
Rainfall 0.00 in
Snow Depth Not available.
UV 0 out of 12
Pollen 10.40 out of 12
Air Quality Not available.
Flu Activity Not available.
METAR KTUS 300053Z 30006KT 10SM CLR 31/M06 A3003 RMK AO2 SLP130 T03061056

More Conditions Fewer Conditions

Pressure 29.92 in
Visibility 10.0 miles
Clouds Clear
Heat Index 82 °F
Dew Point 31 °F
Humidity 14%
Rainfall 0.00 in
Snow Depth Not available.
UV 0 out of 12
Pollen 10.40 out of 12
Air Quality Not available.
Flu Activity Not available.
METAR KTUS 300053Z 30006KT 10SM CLR 31/M06 A3003 RMK AO2 SLP130 T03061056

More Conditions Fewer Conditions

10-Day Weather Forecast

Almanac

Astronomy

Mar. 29, 2015 Rise Set
Actual Time
Civil Twilight
Nautical Twilight
Astronomical Twilight
Moon
Length of Visible Light
Length of Day
Tomorrow will be .
, % of the Moon is Illuminated

Today's Extremes

State Highs State Lows

Community

WunderPhotos

Upload Photos

1,809,392 photos uploaded!

WunderBlogs® & News

Nearby

Air Quality

  Air Quality AQ Index Pollutant
Not available.

Snow Depth

Station Depth Elevation

Earthquake Activity

City Distance Mag. Time & Date
Minimum magnitude displayed is 2.5.

Coastal Water Temperatures

Place Temperature

Stations

Nearby Weather Stations

Station Location Temp. Windchill Dew Point Humidity Wind Precip. Elev Updated Type